createdAt,value
2018-06-03T00:01:11.832Z,52.70
2018-06-03T00:03:39.294Z,56.90
2018-06-03T00:06:06.827Z,51.73
2018-06-03T00:08:35.098Z,54.77
2018-06-03T00:11:02.579Z,48.70
2018-06-03T00:13:30.055Z,47.83
2018-06-03T00:15:57.519Z,54.33
2018-06-03T00:18:24.995Z,54.50
2018-06-03T00:21:04.352Z,59.83
2018-06-03T00:23:31.912Z,52.73
2018-06-03T00:25:59.458Z,47.90
2018-06-03T00:28:27.721Z,60.53
2018-06-03T00:30:55.186Z,55.93
2018-06-03T00:33:22.661Z,51.53
2018-06-03T00:36:02.099Z,57.83
2018-06-03T00:38:29.595Z,58.83
2018-06-03T00:40:57.070Z,64.83
2018-06-03T00:43:24.569Z,58.40
2018-06-03T00:45:52.141Z,54.50
2018-06-03T00:48:20.381Z,59.67
2018-06-03T00:50:47.850Z,54.57
2018-06-03T00:53:15.420Z,60.63
2018-06-03T00:55:42.886Z,57.53
2018-06-03T00:58:11.167Z,61.60
2018-06-03T01:00:39.415Z,64.07
2018-06-03T01:03:06.889Z,57.10
2018-06-03T01:05:34.448Z,66.33
2018-06-03T01:08:01.937Z,59.73
2018-06-03T01:10:29.473Z,65.90
2018-06-03T01:12:57.723Z,70.73
2018-06-03T01:15:25.203Z,66.37
2018-06-03T01:17:53.455Z,69.27
2018-06-03T01:20:20.936Z,67.37
2018-06-03T01:22:49.177Z,64.40
2018-06-03T01:25:16.724Z,60.20
2018-06-03T01:27:44.199Z,67.87
2018-06-03T01:30:11.767Z,68.37
2018-06-03T01:32:39.267Z,65.10
2018-06-03T01:35:06.835Z,62.43
2018-06-03T01:37:34.313Z,60.73
2018-06-03T01:40:01.785Z,64.80
2018-06-03T01:42:29.264Z,67.07
2018-06-03T01:44:56.813Z,61.43
2018-06-03T01:47:24.321Z,66.10
2018-06-03T01:49:51.791Z,64.73
2018-06-03T01:52:19.274Z,70.07
2018-06-03T01:54:46.735Z,62.27
2018-06-03T01:57:14.980Z,68.67
2018-06-03T01:59:42.527Z,58.87
2018-06-03T02:02:10.007Z,58.13
2018-06-03T02:04:37.488Z,54.90
2018-06-03T02:07:04.962Z,67.87
2018-06-03T02:09:33.219Z,68.10
2018-06-03T02:12:00.699Z,59.43
2018-06-03T02:14:28.187Z,60.70
2018-06-03T02:16:55.660Z,69.73
2018-06-03T02:19:23.147Z,61.63
2018-06-03T02:21:50.628Z,63.03
2018-06-03T02:24:18.867Z,56.03
2018-06-03T02:26:46.343Z,61.30
2018-06-03T02:29:13.898Z,51.80
2018-06-03T02:31:41.455Z,58.00
2018-06-03T02:34:09.018Z,54.60
2018-06-03T02:36:36.496Z,57.20
2018-06-03T02:39:04.737Z,53.87
2018-06-03T02:41:32.207Z,53.67
2018-06-03T02:43:59.680Z,51.47
2018-06-03T02:46:27.987Z,51.80
2018-06-03T02:48:55.505Z,49.80
2018-06-03T02:51:23.066Z,47.73
2018-06-03T02:53:51.316Z,50.00
2018-06-03T02:56:18.799Z,52.47
2018-06-03T02:58:47.063Z,46.03
2018-06-03T03:01:14.539Z,43.70
2018-06-03T03:03:42.772Z,44.47
2018-06-03T03:06:10.355Z,49.83
2018-06-03T03:08:37.867Z,47.37
2018-06-03T03:11:05.336Z,46.10
2018-06-03T03:13:32.827Z,42.83
2018-06-03T03:16:00.385Z,43.30
2018-06-03T03:18:27.890Z,48.30
2018-06-03T03:20:55.450Z,41.17
2018-06-03T03:23:22.980Z,39.33
2018-06-03T03:25:51.235Z,46.40
2018-06-03T03:28:18.720Z,47.83
2018-06-03T03:30:46.203Z,45.93
2018-06-03T03:33:13.697Z,44.00
2018-06-03T03:35:41.167Z,44.83
2018-06-03T03:38:08.647Z,44.77
2018-06-03T03:40:36.127Z,46.10
2018-06-03T03:43:03.657Z,46.60
2018-06-03T03:45:31.904Z,52.07
2018-06-03T03:47:59.394Z,53.87
2018-06-03T03:50:26.875Z,50.17
2018-06-03T03:52:54.351Z,49.83
2018-06-03T03:55:21.833Z,47.20
2018-06-03T03:57:50.117Z,43.97
2018-06-03T04:00:17.603Z,47.87
2018-06-03T04:02:45.076Z,49.77
2018-06-03T04:05:12.584Z,45.30
2018-06-03T04:07:40.065Z,47.20
2018-06-03T04:10:08.302Z,48.70
2018-06-03T04:12:37.282Z,44.80
2018-06-03T04:15:04.776Z,50.40
2018-06-03T04:17:33.087Z,47.97
2018-06-03T04:20:00.561Z,49.80
2018-06-03T04:22:28.035Z,48.87
2018-06-03T04:24:55.612Z,44.50
2018-06-03T04:27:23.083Z,49.37
2018-06-03T04:29:51.395Z,57.13
2018-06-03T04:32:18.903Z,48.63
2018-06-03T04:34:46.372Z,54.57
2018-06-03T04:37:14.611Z,53.50
2018-06-03T04:39:42.195Z,65.00
2018-06-03T04:42:09.665Z,47.73
2018-06-03T04:44:37.903Z,51.87
2018-06-03T04:47:05.390Z,48.17
2018-06-03T04:49:32.870Z,48.00
2018-06-03T04:52:00.402Z,50.87
2018-06-03T04:54:27.882Z,62.00
2018-06-03T04:56:55.351Z,54.57
2018-06-03T04:59:22.835Z,54.27
2018-06-03T05:01:50.303Z,61.37
2018-06-03T05:04:17.795Z,50.90
2018-06-03T05:06:45.342Z,59.13
2018-06-03T05:09:12.912Z,57.43
2018-06-03T05:11:41.155Z,104.47
2018-06-03T05:14:08.663Z,52.93
2018-06-03T05:16:36.149Z,53.57
2018-06-03T05:19:03.757Z,58.60
2018-06-03T05:21:31.994Z,54.87
2018-06-03T05:23:59.465Z,53.77
2018-06-03T05:26:26.940Z,47.83
2018-06-03T05:28:54.502Z,59.10
2018-06-03T05:31:22.061Z,54.40
2018-06-03T05:33:49.627Z,59.33
2018-06-03T05:36:17.912Z,51.27
2018-06-03T05:38:46.180Z,51.30
2018-06-03T05:41:14.447Z,52.83
2018-06-03T05:43:42.008Z,56.10
2018-06-03T05:46:09.555Z,51.03
2018-06-03T05:48:37.027Z,58.10
2018-06-03T05:51:05.275Z,52.13
2018-06-03T05:53:32.756Z,49.50
2018-06-03T05:56:00.229Z,46.07
2018-06-03T05:58:28.486Z,48.13
2018-06-03T06:00:56.727Z,52.83
2018-06-03T06:03:24.195Z,50.77
2018-06-03T06:05:51.683Z,54.77
2018-06-03T06:08:19.920Z,57.77
2018-06-03T06:10:47.496Z,44.97
2018-06-03T06:13:15.749Z,50.40
2018-06-03T06:15:43.231Z,49.77
2018-06-03T06:18:10.711Z,52.70
2018-06-03T06:20:38.960Z,50.17
2018-06-03T06:23:06.435Z,40.47
2018-06-03T06:25:34.685Z,47.27
2018-06-03T06:28:02.254Z,44.90
2018-06-03T06:30:29.819Z,46.33
2018-06-03T06:32:57.364Z,43.87
2018-06-03T06:35:24.851Z,50.00
2018-06-03T06:37:53.098Z,56.00
2018-06-03T06:40:20.581Z,48.03
2018-06-03T06:42:48.816Z,56.43
2018-06-03T06:45:16.295Z,60.13
2018-06-03T06:47:43.852Z,47.13
2018-06-03T06:50:11.407Z,51.03
2018-06-03T06:52:38.963Z,54.80
2018-06-03T06:55:06.443Z,40.97
2018-06-03T06:57:34.689Z,49.67
2018-06-03T07:00:02.178Z,52.00
2018-06-03T07:02:30.435Z,61.87
2018-06-03T07:04:57.995Z,51.40
2018-06-03T07:07:25.501Z,66.67
2018-06-03T07:09:52.990Z,53.20
2018-06-03T07:12:20.565Z,50.20
2018-06-03T07:14:48.027Z,59.70
2018-06-03T07:17:15.607Z,53.40
2018-06-03T07:19:43.848Z,56.30
2018-06-03T07:22:11.417Z,64.80
2018-06-03T07:24:38.916Z,59.83
2018-06-03T07:27:06.430Z,60.23
2018-06-03T07:29:33.992Z,60.83
2018-06-03T07:32:01.567Z,55.13
2018-06-03T07:34:29.034Z,66.30
2018-06-03T07:36:57.283Z,65.73
2018-06-03T07:39:24.752Z,60.07
2018-06-03T07:41:52.227Z,73.20
2018-06-03T07:44:20.584Z,74.33
2018-06-03T07:46:48.070Z,60.50
2018-06-03T07:49:15.552Z,59.10
2018-06-03T07:51:43.036Z,57.63
2018-06-03T07:54:10.516Z,61.07
2018-06-03T07:56:38.016Z,56.90
2018-06-03T07:59:05.527Z,54.47
2018-06-03T08:01:33.016Z,62.60
2018-06-03T08:04:00.536Z,59.93
2018-06-03T08:06:28.095Z,49.03
2018-06-03T08:08:55.577Z,58.20
2018-06-03T08:11:23.820Z,64.50
2018-06-03T08:13:51.303Z,54.07
2018-06-03T08:16:19.560Z,47.50
2018-06-03T08:18:47.063Z,48.73
2018-06-03T08:21:14.575Z,53.27
2018-06-03T08:23:42.084Z,44.97
2018-06-03T08:26:09.568Z,48.87
2018-06-03T08:28:37.035Z,47.43
2018-06-03T08:31:05.318Z,48.50
2018-06-03T08:33:32.872Z,41.07
2018-06-03T08:36:00.448Z,48.70
2018-06-03T08:38:28.687Z,49.60
2018-06-03T08:40:56.271Z,49.63
2018-06-03T08:43:23.824Z,50.20
2018-06-03T08:45:52.835Z,56.13
2018-06-03T08:48:21.059Z,55.93
2018-06-03T08:50:48.601Z,56.10
2018-06-03T08:53:16.099Z,50.03
2018-06-03T08:55:43.623Z,53.43
2018-06-03T08:58:11.121Z,60.03
2018-06-03T09:00:38.728Z,55.10
2018-06-03T09:03:06.292Z,54.87
2018-06-03T09:05:33.768Z,59.60
2018-06-03T09:08:01.253Z,56.77
2018-06-03T09:10:28.763Z,61.33
2018-06-03T09:12:56.236Z,58.40
2018-06-03T09:15:23.710Z,50.97
2018-06-03T09:17:51.196Z,55.93
2018-06-03T09:20:18.683Z,54.40
2018-06-03T09:22:46.164Z,50.37
2018-06-03T09:25:13.643Z,54.23
2018-06-03T09:27:41.220Z,55.80
2018-06-03T09:30:08.683Z,47.77
2018-06-03T09:32:36.159Z,46.47
2018-06-03T09:35:03.688Z,57.33
2018-06-03T09:37:31.242Z,49.30
2018-06-03T09:39:58.719Z,51.07
2018-06-03T09:42:27.076Z,49.67
2018-06-03T09:44:58.587Z,45.77
2018-06-03T09:47:26.092Z,46.10
2018-06-03T09:49:53.658Z,46.27
2018-06-03T09:52:21.119Z,54.53
2018-06-03T09:54:49.383Z,56.67
2018-06-03T09:57:16.913Z,54.30
2018-06-03T09:59:44.391Z,50.90
2018-06-03T10:02:11.963Z,48.80
2018-06-03T10:04:39.435Z,48.20
2018-06-03T10:07:07.677Z,51.27
2018-06-03T10:09:35.295Z,49.77
2018-06-03T10:12:02.765Z,48.07
2018-06-03T10:14:30.257Z,45.07
2018-06-03T10:16:57.791Z,40.90
2018-06-03T10:19:25.276Z,43.90
2018-06-03T10:21:54.273Z,40.53
2018-06-03T10:24:21.747Z,42.10
2018-06-03T10:26:49.997Z,39.97
2018-06-03T10:29:18.381Z,48.20
2018-06-03T10:31:45.943Z,49.20
2018-06-03T10:34:13.492Z,47.40
2018-06-03T10:36:40.998Z,44.63
2018-06-03T10:39:08.508Z,47.43
2018-06-03T10:41:36.062Z,43.30
2018-06-03T10:44:03.624Z,44.73
2018-06-03T10:46:31.127Z,42.77
2018-06-03T10:48:58.616Z,42.63
2018-06-03T10:51:26.099Z,45.23
2018-06-03T10:53:53.580Z,47.27
2018-06-03T10:56:21.826Z,41.40
2018-06-03T10:58:51.032Z,39.00
2018-06-03T11:01:18.601Z,41.40
2018-06-03T11:03:46.861Z,38.60
2018-06-03T11:06:15.855Z,39.67
2018-06-03T11:08:43.412Z,35.53
2018-06-03T11:11:10.895Z,39.23
2018-06-03T11:13:39.144Z,33.37
2018-06-03T11:16:06.625Z,34.20
2018-06-03T11:18:34.926Z,37.03
2018-06-03T11:21:02.420Z,29.83
2018-06-03T11:23:29.936Z,28.57
2018-06-03T11:25:57.448Z,31.73
2018-06-03T11:28:24.921Z,29.53
2018-06-03T11:30:53.187Z,28.37
2018-06-03T11:33:20.672Z,29.53
2018-06-03T11:35:48.144Z,28.67
2018-06-03T11:38:15.624Z,30.37
2018-06-03T11:40:43.116Z,23.80
2018-06-03T11:43:10.668Z,25.63
2018-06-03T11:45:38.144Z,19.03
2018-06-03T11:48:06.381Z,18.50
2018-06-03T11:50:33.852Z,19.47
2018-06-03T11:53:01.420Z,17.97
2018-06-03T11:55:29.679Z,20.40
2018-06-03T12:01:22.070Z,12.23
2018-06-03T12:03:50.103Z,11.00
2018-06-03T12:06:18.108Z,10.40
2018-06-03T12:08:46.276Z,13.30
2018-06-03T12:11:14.341Z,25.00
2018-06-03T12:13:42.462Z,41.73
2018-06-03T12:16:10.455Z,10.73
2018-06-03T12:18:38.654Z,9.93
2018-06-03T12:21:06.704Z,7.27
2018-06-03T12:23:34.828Z,13.40
2018-06-03T12:26:02.945Z,9.80
2018-06-03T12:28:31.197Z,10.73
2018-06-03T12:30:59.188Z,10.07
2018-06-03T12:33:27.259Z,13.17
2018-06-03T12:35:55.782Z,12.33
2018-06-03T12:38:23.787Z,9.13
2018-06-03T12:40:51.796Z,17.10
2018-06-03T12:43:19.785Z,16.30
2018-06-03T12:45:47.819Z,11.07
2018-06-03T12:48:15.829Z,11.50
2018-06-03T12:50:43.884Z,14.00
2018-06-03T12:53:11.937Z,14.87
2018-06-03T12:55:39.923Z,12.43
2018-06-03T12:58:07.935Z,12.10
2018-06-03T13:00:35.943Z,11.60
2018-06-03T13:03:03.965Z,9.40
2018-06-03T13:05:31.982Z,9.67
2018-06-03T13:07:59.976Z,9.60
2018-06-03T13:10:28.047Z,13.43
2018-06-03T13:12:56.088Z,8.00
2018-06-03T13:15:24.188Z,15.00
2018-06-03T13:17:52.264Z,9.50
2018-06-03T13:20:20.306Z,9.00
2018-06-03T13:22:48.383Z,9.90
2018-06-03T13:25:16.424Z,10.00
2018-06-03T13:27:44.426Z,12.80
2018-06-03T13:30:12.432Z,11.80
2018-06-03T13:32:40.457Z,9.20
2018-06-03T13:35:08.596Z,7.60
2018-06-03T13:37:36.633Z,9.90
2018-06-03T13:40:04.896Z,7.47
2018-06-03T13:42:32.963Z,7.43
2018-06-03T13:45:01.017Z,10.60
2018-06-03T13:47:29.058Z,10.07
2018-06-03T13:49:57.295Z,8.33
2018-06-03T13:52:26.021Z,12.67
2018-06-03T13:54:54.144Z,10.20
2018-06-03T13:57:22.169Z,10.33
2018-06-03T13:59:50.336Z,10.47
2018-06-03T14:02:18.605Z,6.73
2018-06-03T14:04:46.628Z,8.00
2018-06-03T14:07:14.795Z,9.27
2018-06-03T14:09:42.855Z,9.30
2018-06-03T14:12:10.877Z,10.67
2018-06-03T14:14:39.613Z,11.90
2018-06-03T14:17:07.607Z,8.83
2018-06-03T14:19:35.660Z,7.60
2018-06-03T14:22:03.692Z,10.20
2018-06-03T14:24:31.716Z,11.07
2018-06-03T14:26:59.735Z,7.70
2018-06-03T14:29:27.851Z,9.83
2018-06-03T14:31:55.914Z,9.10
2018-06-03T14:34:23.923Z,10.70
2018-06-03T14:36:52.090Z,11.83
2018-06-03T14:39:20.123Z,9.87
2018-06-03T14:41:48.188Z,8.93
2018-06-03T14:44:16.207Z,13.43
2018-06-03T14:46:44.269Z,12.40
2018-06-03T14:49:12.348Z,9.80
2018-06-03T14:51:40.408Z,9.90
2018-06-03T14:54:08.460Z,10.10
2018-06-03T14:56:36.481Z,20.70
2018-06-03T14:59:04.457Z,10.43
2018-06-03T15:01:32.542Z,12.70
2018-06-03T15:04:00.540Z,10.43
2018-06-03T15:06:28.759Z,11.43
2018-06-03T15:08:56.755Z,12.00
2018-06-03T15:11:24.824Z,11.43
2018-06-03T15:13:52.856Z,12.03
2018-06-03T15:16:20.868Z,14.77
2018-06-03T15:18:48.900Z,14.23
2018-06-03T15:21:16.952Z,12.00
2018-06-03T15:23:44.992Z,10.30
2018-06-03T15:26:13.047Z,10.60
2018-06-03T15:28:41.023Z,11.10
2018-06-03T15:31:09.060Z,9.73
2018-06-03T15:33:37.061Z,9.70
2018-06-03T15:36:05.060Z,14.00
2018-06-03T15:38:33.096Z,12.90
2018-06-03T15:41:01.087Z,10.77
2018-06-03T15:43:29.153Z,8.00
2018-06-03T15:45:57.155Z,12.07
2018-06-03T15:48:25.215Z,9.40
2018-06-03T15:50:53.078Z,8.60
2018-06-03T15:53:21.094Z,12.17
2018-06-03T15:55:49.110Z,9.93
2018-06-03T15:58:17.280Z,12.90
2018-06-03T16:00:45.283Z,9.50
2018-06-03T16:03:13.342Z,12.50
2018-06-03T16:05:41.199Z,9.37
2018-06-03T16:08:09.264Z,10.27
2018-06-03T16:10:37.288Z,9.67
2018-06-03T16:13:05.340Z,8.50
2018-06-03T16:15:33.410Z,10.17
2018-06-03T16:18:01.439Z,8.47
2018-06-03T16:20:29.493Z,8.17
2018-06-03T16:22:57.535Z,9.70
2018-06-03T16:25:25.603Z,11.10
2018-06-03T16:27:53.641Z,12.03
2018-06-03T16:30:21.665Z,10.80
2018-06-03T16:32:49.764Z,11.53
2018-06-03T16:35:17.828Z,11.10
2018-06-03T16:37:45.678Z,9.83
2018-06-03T16:40:13.767Z,13.50
2018-06-03T16:42:41.769Z,7.70
2018-06-03T16:45:09.801Z,7.37
2018-06-03T16:47:37.822Z,10.57
2018-06-03T16:50:07.210Z,9.17
2018-06-03T16:52:35.312Z,9.07
2018-06-03T16:55:03.315Z,9.90
2018-06-03T16:57:31.312Z,8.00
2018-06-03T16:59:59.372Z,7.03
2018-06-03T17:02:27.359Z,8.20
2018-06-03T17:04:55.401Z,11.87
2018-06-03T17:07:23.407Z,11.30
2018-06-03T17:09:51.452Z,8.83
2018-06-03T17:12:19.492Z,8.63
2018-06-03T17:14:47.619Z,9.23
2018-06-03T17:17:15.748Z,10.10
2018-06-03T17:19:43.751Z,7.67
2018-06-03T17:22:11.898Z,11.70
2018-06-03T17:24:39.867Z,11.97
2018-06-03T17:27:08.124Z,11.73
2018-06-03T17:29:36.192Z,10.73
2018-06-03T17:32:04.353Z,11.50
2018-06-03T17:34:32.358Z,9.37
2018-06-03T17:37:00.245Z,11.60
2018-06-03T17:39:28.281Z,10.20
2018-06-03T17:41:56.144Z,7.97
2018-06-03T17:44:24.210Z,11.73
2018-06-03T17:46:52.375Z,13.40
2018-06-03T17:49:20.446Z,15.33
2018-06-03T17:51:48.508Z,11.47
2018-06-03T17:54:16.628Z,17.17
2018-06-03T17:56:44.683Z,16.23
2018-06-03T17:59:12.744Z,11.50
2018-06-03T18:01:40.737Z,10.80
2018-06-03T18:04:08.772Z,11.97
2018-06-03T18:06:36.793Z,11.47
2018-06-03T18:09:07.450Z,10.90
2018-06-03T18:11:36.318Z,15.07
2018-06-03T18:14:04.838Z,11.40
2018-06-03T18:16:33.138Z,14.27
2018-06-03T18:19:01.771Z,10.57
2018-06-03T18:21:29.794Z,12.57
2018-06-03T18:23:58.098Z,16.50
2018-06-03T18:26:26.223Z,10.10
2018-06-03T18:28:54.635Z,11.30
2018-06-03T18:31:22.972Z,12.00
2018-06-03T18:33:51.575Z,12.70
2018-06-03T18:36:19.992Z,14.37
2018-06-03T18:38:48.036Z,9.80
2018-06-03T18:41:16.330Z,10.70
2018-06-03T18:43:44.355Z,9.70
2018-06-03T18:46:12.360Z,11.10
2018-06-03T18:48:40.413Z,13.20
2018-06-03T18:51:08.472Z,12.77
2018-06-03T18:53:36.605Z,14.20
2018-06-03T18:56:04.622Z,11.60
2018-06-03T18:58:32.850Z,11.70
2018-06-03T19:01:00.964Z,10.87
2018-06-03T19:03:29.232Z,10.50
2018-06-03T19:05:57.292Z,13.50
2018-06-03T19:08:25.492Z,11.20
2018-06-03T19:10:53.803Z,12.77
2018-06-03T19:13:21.860Z,13.27
2018-06-03T19:15:49.933Z,10.27
2018-06-03T19:18:17.984Z,11.63
2018-06-03T19:20:45.973Z,13.03
2018-06-03T19:23:14.020Z,14.17
2018-06-03T19:25:42.083Z,13.30
2018-06-03T19:28:10.088Z,12.73
2018-06-03T19:30:38.139Z,12.23
2018-06-03T19:33:06.793Z,15.37
2018-06-03T19:35:35.370Z,13.80
2018-06-03T19:38:03.793Z,11.70
2018-06-03T19:40:31.862Z,14.90
2018-06-03T19:42:59.936Z,10.23
2018-06-03T19:45:28.187Z,14.70
2018-06-03T19:47:56.184Z,14.27
2018-06-03T19:50:24.309Z,14.50
2018-06-03T19:52:52.331Z,12.10
2018-06-03T19:55:20.325Z,14.90
2018-06-03T19:57:48.367Z,13.70
2018-06-03T20:00:16.412Z,15.07
2018-06-03T20:02:44.408Z,13.00
2018-06-03T20:05:12.553Z,14.47
2018-06-03T20:07:40.603Z,16.70
2018-06-03T20:10:08.627Z,21.97
2018-06-03T20:12:36.650Z,17.70
2018-06-03T20:15:04.659Z,17.90
2018-06-03T20:17:32.805Z,15.33
2018-06-03T20:20:00.799Z,15.70
2018-06-03T20:22:28.891Z,18.50
2018-06-03T20:24:56.946Z,16.20
2018-06-03T20:27:25.023Z,15.63
2018-06-03T20:29:53.055Z,16.00
2018-06-03T20:32:21.067Z,17.90
2018-06-03T20:34:49.106Z,18.07
2018-06-03T20:37:17.143Z,15.10
2018-06-03T20:39:45.146Z,16.20
2018-06-03T20:42:13.243Z,16.97
2018-06-03T20:44:41.346Z,21.27
2018-06-03T20:47:09.359Z,16.53
2018-06-03T20:49:38.518Z,15.53
2018-06-03T20:52:06.588Z,22.43
2018-06-03T20:54:34.591Z,16.50
2018-06-03T20:57:02.597Z,23.77
2018-06-03T20:59:30.679Z,19.87
2018-06-03T21:01:58.825Z,17.23
2018-06-03T21:04:26.891Z,20.63
2018-06-03T21:06:54.948Z,17.13
2018-06-03T21:09:22.936Z,26.13
2018-06-03T21:11:50.971Z,28.57
2018-06-03T21:14:19.043Z,19.43
2018-06-03T21:16:47.055Z,18.13
2018-06-03T21:19:15.284Z,15.60
2018-06-03T21:21:43.295Z,21.73
2018-06-03T21:24:11.520Z,17.97
2018-06-03T21:26:39.539Z,19.13
2018-06-03T21:29:07.662Z,25.70
2018-06-03T21:31:35.690Z,18.43
2018-06-03T21:34:03.751Z,19.97
2018-06-03T21:36:31.820Z,23.13
2018-06-03T21:38:59.901Z,19.17
2018-06-03T21:41:27.971Z,19.30
2018-06-03T21:43:56.108Z,20.10
2018-06-03T21:46:24.157Z,18.47
2018-06-03T21:48:52.370Z,21.00
2018-06-03T21:51:20.453Z,30.57
2018-06-03T21:53:48.478Z,25.23
2018-06-03T21:56:16.501Z,19.27
2018-06-03T21:58:44.561Z,22.10
2018-06-03T22:01:12.585Z,24.27
2018-06-03T22:03:40.684Z,20.60
2018-06-03T22:06:08.763Z,22.30
2018-06-03T22:08:36.870Z,22.07
2018-06-03T22:11:04.978Z,21.53
2018-06-03T22:13:33.194Z,24.27
2018-06-03T22:16:01.249Z,23.83
2018-06-03T22:18:29.256Z,22.37
2018-06-03T22:20:57.283Z,23.23
2018-06-03T22:23:25.333Z,23.70
2018-06-03T22:25:53.371Z,22.70
2018-06-03T22:28:21.419Z,19.00
2018-06-03T22:30:49.465Z,21.17
2018-06-03T22:33:17.469Z,22.50
2018-06-03T22:35:45.533Z,26.13
2018-06-03T22:38:13.613Z,20.53
2018-06-03T22:40:41.672Z,24.67
2018-06-03T22:43:09.744Z,20.07
2018-06-03T22:45:37.811Z,23.57
2018-06-03T22:48:05.884Z,23.13
2018-06-03T22:50:33.928Z,26.87
2018-06-03T22:53:01.989Z,24.73
2018-06-03T22:55:29.995Z,25.60
2018-06-03T22:57:58.067Z,23.10
2018-06-03T23:00:29.172Z,22.20
2018-06-03T23:03:02.793Z,22.77
2018-06-03T23:05:30.908Z,30.93
2018-06-03T23:07:58.994Z,22.63
2018-06-03T23:10:27.056Z,23.90
2018-06-03T23:12:55.096Z,23.60
2018-06-03T23:15:23.189Z,25.40
2018-06-03T23:17:51.257Z,27.67
2018-06-03T23:20:19.283Z,26.33
2018-06-03T23:22:47.288Z,25.73
2018-06-03T23:25:15.343Z,24.53
2018-06-03T23:27:43.386Z,26.10
2018-06-03T23:30:11.440Z,27.87
2018-06-03T23:32:39.523Z,23.23
2018-06-03T23:35:07.527Z,23.97
2018-06-03T23:37:35.624Z,26.10
2018-06-03T23:40:03.846Z,25.17
2018-06-03T23:42:31.859Z,25.17
2018-06-03T23:44:59.895Z,27.70
2018-06-03T23:47:27.899Z,22.93
2018-06-03T23:49:55.935Z,25.40
2018-06-03T23:52:23.923Z,24.57
2018-06-03T23:54:52.044Z,25.70
2018-06-03T23:57:20.016Z,27.03
2018-06-03T23:59:48.058Z,28.73
